Time;durP1;ratioP1;P1;durP2;ratioP2;P2;SDS_P1;SDS_P2;PMS_P1;PMS_P2;Temp;Humidity;BMP_temperature;BMP_pressure;BME280_temperature;BME280_humidity;BME280_pressure;Samples;Min_cycle;Max_cycle;Signal;HPM_P1;HPM_P2
2021/10/03 00:00:11;;;;;;;4.07;2.45;;;;;;;18.30;89.24;99096.81;5019657;28;20053;-62
2021/10/03 00:02:41;;;;;;;7.60;2.45;;;;;;;18.31;88.71;99098.41;5034266;28;20550;-62
2021/10/03 00:05:11;;;;;;;4.63;2.13;;;;;;;18.62;87.25;99094.72;5035075;28;20469;-64
2021/10/03 00:07:46;;;;;;;5.40;2.65;;;;;;;18.55;87.07;99092.75;5035813;28;20049;-62
2021/10/03 00:10:14;;;;;;;4.30;2.15;;;;;;;18.58;87.00;99085.56;5035258;28;20061;-63
2021/10/03 00:12:41;;;;;;;6.18;2.40;;;;;;;18.44;87.68;99089.25;5034704;28;20479;-62
2021/10/03 00:15:11;;;;;;;4.68;2.40;;;;;;;18.55;87.23;99081.59;5035369;28;20123;-70
2021/10/03 00:17:39;;;;;;;5.38;2.50;;;;;;;18.61;86.85;99071.63;5035565;28;20049;-70
2021/10/03 00:20:09;;;;;;;4.95;2.58;;;;;;;18.65;86.54;99077.97;5036036;28;20065;-72
2021/10/03 00:22:38;;;;;;;6.38;2.83;;;;;;;18.54;87.35;99079.22;5034590;28;20049;-64
2021/10/03 00:25:07;;;;;;;5.40;2.50;;;;;;;18.49;87.59;99068.50;5015036;28;20061;-70
2021/10/03 00:27:35;;;;;;;8.50;2.65;;;;;;;18.58;87.02;99063.28;5037198;28;20049;-63
2021/10/03 00:30:03;;;;;;;3.95;2.67;;;;;;;18.62;86.87;99064.06;5049733;28;20053;-63
2021/10/03 00:32:30;;;;;;;6.05;2.50;;;;;;;18.67;86.81;99058.03;5017830;28;20049;-66
2021/10/03 00:34:58;;;;;;;5.70;2.47;;;;;;;18.64;86.73;99072.78;5035106;28;20052;-62
2021/10/03 00:37:25;;;;;;;3.72;2.20;;;;;;;18.84;85.99;99060.72;5035458;28;20053;-63
2021/10/03 00:39:52;;;;;;;4.25;2.65;;;;;;;18.73;85.78;99068.34;5046274;28;20496;-63
2021/10/03 00:42:21;;;;;;;4.82;2.20;;;;;;;18.89;84.33;99037.16;5039007;28;20061;-62
2021/10/03 00:44:49;;;;;;;7.00;2.95;;;;;;;18.81;85.13;99044.00;5015879;28;20054;-63
2021/10/03 00:47:17;;;;;;;4.68;2.60;;;;;;;18.83;84.50;99045.19;5025909;28;20044;-63
2021/10/03 00:49:45;;;;;;;4.25;2.65;;;;;;;18.57;86.16;99040.16;5031135;28;20068;-63
2021/10/03 00:52:12;;;;;;;5.28;2.83;;;;;;;18.73;85.40;99032.09;5035143;28;20046;-63
2021/10/03 00:54:40;;;;;;;8.13;3.00;;;;;;;18.72;85.76;99035.28;5035020;28;20049;-64
2021/10/03 00:57:07;;;;;;;5.35;2.90;;;;;;;18.72;85.71;99040.88;5033568;28;20061;-71
2021/10/03 00:59:34;;;;;;;4.82;2.72;;;;;;;18.46;87.33;99025.47;5035299;28;20041;-70
2021/10/03 01:02:03;;;;;;;4.53;2.50;;;;;;;18.68;86.82;99034.53;5034681;28;20054;-70
2021/10/03 01:04:30;;;;;;;6.82;2.65;;;;;;;18.61;86.65;99032.56;5034386;28;20041;-70
2021/10/03 01:06:57;;;;;;;9.55;3.55;;;;;;;18.51;88.03;99027.84;5030640;28;20050;-70
2021/10/03 01:09:25;;;;;;;8.73;2.80;;;;;;;18.59;86.65;99025.81;5035451;28;20056;-71
2021/10/03 01:11:52;;;;;;;6.10;2.80;;;;;;;18.63;87.00;99018.22;5034803;28;20056;-71
2021/10/03 01:14:20;;;;;;;7.22;2.90;;;;;;;18.56;87.04;99012.69;5035008;28;20488;-63
2021/10/03 01:16:48;;;;;;;9.52;3.58;;;;;;;18.75;85.72;99001.00;5033999;28;20046;-63
2021/10/03 01:19:16;;;;;;;9.15;2.78;;;;;;;18.53;87.07;98994.75;5035143;28;20045;-63
2021/10/03 01:21:44;;;;;;;7.82;2.80;;;;;;;18.46;87.77;99000.38;5034597;28;20487;-64
2021/10/03 01:24:13;;;;;;;6.50;2.95;;;;;;;18.40;88.25;98995.63;5033734;28;20073;-63
2021/10/03 01:26:40;;;;;;;5.30;3.25;;;;;;;18.37;88.55;98994.44;5033266;28;20041;-70
2021/10/03 01:29:08;;;;;;;6.53;3.38;;;;;;;18.39;88.60;98985.69;5035092;28;20053;-70
2021/10/03 01:31:35;;;;;;;5.28;2.92;;;;;;;18.28;89.76;98993.28;5035682;28;20041;-70
2021/10/03 01:34:03;;;;;;;6.43;3.05;;;;;;;18.16;89.86;98977.84;5032860;28;20057;-63
2021/10/03 01:36:30;;;;;;;8.63;3.78;;;;;;;18.16;90.47;98980.63;5034770;28;20381;-63
2021/10/03 01:38:57;;;;;;;5.88;3.55;;;;;;;18.08;90.92;98976.25;5034744;28;20053;-63
2021/10/03 01:41:25;;;;;;;8.30;3.10;;;;;;;18.14;91.15;98973.84;5034853;28;20493;-63
2021/10/03 01:43:52;;;;;;;6.95;3.55;;;;;;;18.26;90.15;98959.47;5032708;28;20623;-63
2021/10/03 01:46:20;;;;;;;6.20;3.25;;;;;;;18.09;90.63;98977.06;5032608;28;20045;-61
2021/10/03 01:48:47;;;;;;;9.93;4.10;;;;;;;18.02;92.09;98954.81;5015362;28;20053;-70
2021/10/03 01:51:16;;;;;;;9.85;3.42;;;;;;;18.08;90.88;98961.56;5034589;28;20064;-69
2021/10/03 01:53:48;;;;;;;7.82;3.50;;;;;;;18.20;91.16;98958.31;5032115;28;20046;-72
2021/10/03 01:56:16;;;;;;;8.25;3.65;;;;;;;18.24;89.98;98942.34;5033411;28;20052;-63
2021/10/03 01:58:46;;;;;;;8.02;3.65;;;;;;;18.20;90.17;98947.94;5033267;28;20056;-63
2021/10/03 02:01:21;;;;;;;6.95;3.65;;;;;;;18.32;89.03;98939.13;5032256;28;20045;-63
2021/10/03 02:03:49;;;;;;;6.00;3.30;;;;;;;18.28;89.13;98943.94;5032617;28;20064;-65
2021/10/03 02:06:16;;;;;;;8.05;3.63;;;;;;;18.21;89.93;98932.81;5031569;28;20045;-62
2021/10/03 02:08:43;;;;;;;5.47;3.63;;;;;;;17.98;91.46;98922.19;5019546;28;20045;-70
2021/10/03 02:11:11;;;;;;;8.00;3.70;;;;;;;17.94;91.60;98910.28;5032666;28;20065;-70
2021/10/03 02:13:38;;;;;;;6.63;3.70;;;;;;;17.92;91.46;98921.03;5034205;28;20037;-70
2021/10/03 02:16:06;;;;;;;7.05;4.13;;;;;;;18.02;91.22;98904.66;5033236;28;20061;-71
2021/10/03 02:18:39;;;;;;;7.07;3.80;;;;;;;17.92;91.82;98897.97;5033876;28;20056;-71
2021/10/03 02:21:08;;;;;;;9.45;4.20;;;;;;;18.03;91.51;98895.13;5034658;28;20053;-70
2021/10/03 02:23:36;;;;;;;6.97;4.03;;;;;;;18.07;90.38;98891.09;5034369;28;20049;-71
2021/10/03 02:26:04;;;;;;;6.78;3.80;;;;;;;17.96;90.70;98882.00;5028984;28;20049;-71
2021/10/03 02:28:32;;;;;;;5.35;3.75;;;;;;;18.08;90.41;98884.31;5033505;28;20050;-70
2021/10/03 02:31:11;;;;;;;7.93;3.47;;;;;;;17.96;90.78;98879.22;5032210;28;20060;-70
2021/10/03 02:33:41;;;;;;;6.95;3.75;;;;;;;17.65;92.42;98875.41;5014562;28;20054;-70
2021/10/03 02:36:10;;;;;;;6.88;4.50;;;;;;;17.69;92.85;98870.63;5026172;28;20616;-72
2021/10/03 02:38:37;;;;;;;9.32;3.60;;;;;;;17.90;91.81;98873.28;5034403;28;20045;-71
2021/10/03 02:41:06;;;;;;;8.13;4.00;;;;;;;17.99;91.47;98876.41;5032420;28;20059;-71
2021/10/03 02:43:35;;;;;;;8.02;3.70;;;;;;;18.00;91.02;98866.06;5032216;28;20068;-63
2021/10/03 02:46:03;;;;;;;5.93;3.72;;;;;;;18.11;89.91;98869.59;5033173;28;20049;-63
2021/10/03 02:48:34;;;;;;;7.63;3.97;;;;;;;17.78;90.81;98859.81;5033605;28;20064;-70
2021/10/03 02:51:02;;;;;;;6.43;3.40;;;;;;;17.93;90.64;98858.56;5032405;28;20053;-70
2021/10/03 02:53:29;;;;;;;7.80;3.30;;;;;;;17.84;91.23;98858.22;5032350;28;20053;-69
2021/10/03 02:55:56;;;;;;;5.07;3.60;;;;;;;17.96;90.64;98863.31;5033554;28;20057;-62
2021/10/03 02:58:24;;;;;;;7.82;4.03;;;;;;;17.97;90.56;98836.25;5014573;28;20542;-62
2021/10/03 03:00:52;;;;;;;8.85;3.83;;;;;;;18.03;90.41;98831.03;5032394;28;20057;-63
2021/10/03 03:03:20;;;;;;;8.00;4.18;;;;;;;18.11;89.12;98829.78;5034677;28;20120;-62
2021/10/03 03:05:48;;;;;;;6.55;3.60;;;;;;;18.08;90.18;98833.38;5036672;28;20353;-62
2021/10/03 03:08:16;;;;;;;9.20;3.85;;;;;;;18.14;89.42;98834.53;5034164;28;20049;-63
2021/10/03 03:10:43;;;;;;;8.10;3.95;;;;;;;18.09;89.53;98838.56;5019653;28;20416;-62
2021/10/03 03:13:10;;;;;;;6.90;3.95;;;;;;;18.10;89.18;98831.75;5000529;28;20103;-64
2021/10/03 03:15:38;;;;;;;7.13;4.18;;;;;;;18.06;89.94;98819.88;5034955;28;20076;-63
2021/10/03 03:18:05;;;;;;;5.65;3.80;;;;;;;18.05;89.41;98811.91;5036186;28;20049;-63
2021/10/03 03:20:32;;;;;;;8.20;4.20;;;;;;;17.98;89.08;98813.56;5036910;28;20049;-63
2021/10/03 03:23:00;;;;;;;6.82;4.25;;;;;;;17.88;89.29;98817.22;5037601;28;20060;-66
2021/10/03 03:25:27;;;;;;;11.00;4.80;;;;;;;18.01;88.70;98800.00;5036517;28;20048;-63
2021/10/03 03:27:54;;;;;;;5.75;3.70;;;;;;;17.87;89.61;98807.25;5037217;28;20531;-63
2021/10/03 03:30:22;;;;;;;9.50;3.88;;;;;;;17.83;89.46;98802.91;5035021;28;20064;-64
2021/10/03 03:32:49;;;;;;;9.32;4.32;;;;;;;17.60;91.10;98803.44;5037484;28;20094;-70
2021/10/03 03:35:17;;;;;;;6.25;4.13;;;;;;;17.69;91.42;98803.00;5036495;28;20139;-64
2021/10/03 03:37:44;;;;;;;7.22;4.13;;;;;;;17.65;91.16;98799.44;5036564;28;20493;-64
2021/10/03 03:40:12;;;;;;;6.68;4.03;;;;;;;17.85;90.38;98792.94;5020618;28;20377;-71
2021/10/03 03:42:40;;;;;;;8.15;4.15;;;;;;;17.60;90.77;98794.28;5017420;28;20054;-70
2021/10/03 03:45:09;;;;;;;7.75;4.30;;;;;;;17.73;90.69;98798.22;5033402;28;20041;-72
2021/10/03 03:47:36;;;;;;;7.20;3.97;;;;;;;17.61;90.85;98799.44;5036613;28;20038;-70
2021/10/03 03:50:05;;;;;;;11.82;4.65;;;;;;;17.80;90.18;98796.16;5036868;28;20056;-70
2021/10/03 03:52:32;;;;;;;6.65;4.57;;;;;;;17.82;89.93;98813.25;5036844;28;20049;-71
2021/10/03 03:55:00;;;;;;;9.02;4.10;;;;;;;17.64;90.28;98797.88;5036550;28;20057;-70
2021/10/03 03:57:27;;;;;;;8.32;4.18;;;;;;;17.62;91.19;98800.25;5036426;28;20544;-70
2021/10/03 03:59:54;;;;;;;7.78;4.43;;;;;;;17.85;89.77;98797.72;5031970;28;20049;-72
2021/10/03 04:02:22;;;;;;;7.40;3.83;;;;;;;18.04;89.03;98813.13;5036252;28;20053;-65
2021/10/03 04:04:50;;;;;;;9.13;4.75;;;;;;;17.87;89.31;98804.47;5036144;28;20060;-62
2021/10/03 04:07:20;;;;;;;7.78;4.63;;;;;;;18.08;88.64;98811.09;5034897;28;20061;-63
2021/10/03 04:09:47;;;;;;;;;;;;;;;18.07;88.08;98799.16;5033014;28;20583;-63
2021/10/03 04:12:14;;;;;;;9.05;4.38;;;;;;;18.13;88.00;98810.66;5036955;28;19921;-69
2021/10/03 04:14:42;;;;;;;6.85;4.03;;;;;;;18.14;88.32;98817.81;5024971;28;20054;-70
2021/10/03 04:17:09;;;;;;;9.30;4.25;;;;;;;18.11;87.90;98797.16;5022172;28;20049;-71
2021/10/03 04:19:36;;;;;;;13.93;5.53;;;;;;;18.02;88.24;98801.56;5035897;28;20049;-71
2021/10/03 04:22:04;;;;;;;8.82;5.07;;;;;;;17.75;89.74;98812.50;5036138;28;20057;-63
2021/10/03 04:24:31;;;;;;;8.77;4.57;;;;;;;17.71;90.59;98814.53;5034751;28;20091;-64
2021/10/03 04:26:58;;;;;;;9.13;4.85;;;;;;;17.63;91.48;98810.97;5035308;28;20377;-63
2021/10/03 04:29:25;;;;;;;11.52;4.95;;;;;;;17.92;89.85;98809.59;5017601;28;20053;-63
2021/10/03 04:31:53;;;;;;;10.38;4.65;;;;;;;17.91;89.57;98807.22;5034971;28;20057;-62
2021/10/03 04:34:20;;;;;;;8.70;4.88;;;;;;;17.85;89.25;98820.00;5033738;28;20061;-63
2021/10/03 04:36:47;;;;;;;10.15;4.97;;;;;;;17.89;89.54;98806.84;5034061;28;20064;-63
2021/10/03 04:39:15;;;;;;;11.65;5.10;;;;;;;18.02;89.70;98815.50;5041370;28;20048;-70
2021/10/03 04:41:42;;;;;;;8.27;4.63;;;;;;;18.01;88.77;98806.34;5039049;28;20042;-70
2021/10/03 04:44:10;;;;;;;6.47;4.57;;;;;;;18.24;87.75;98811.34;5036153;28;20052;-71
2021/10/03 04:46:37;;;;;;;8.80;4.70;;;;;;;18.24;87.58;98803.00;5034390;28;20056;-63
2021/10/03 04:49:04;;;;;;;8.75;4.28;;;;;;;18.14;88.49;98806.66;5035594;28;20053;-63
2021/10/03 04:51:32;;;;;;;7.55;4.43;;;;;;;18.15;88.21;98799.91;5033538;28;20045;-63
2021/10/03 04:53:59;;;;;;;8.70;4.70;;;;;;;18.20;88.00;98794.66;5033895;28;20068;-63
2021/10/03 04:56:28;;;;;;;7.97;4.82;;;;;;;18.03;88.35;98803.94;5034700;28;20049;-70
2021/10/03 04:58:55;;;;;;;8.85;4.80;;;;;;;18.00;88.92;98790.84;5034800;28;20045;-69
2021/10/03 05:01:22;;;;;;;7.03;5.10;;;;;;;17.94;89.35;98784.13;5033548;28;20049;-71
2021/10/03 05:03:50;;;;;;;8.80;5.28;;;;;;;17.87;90.15;98782.19;5033681;28;20068;-71
2021/10/03 05:06:17;;;;;;;6.97;4.35;;;;;;;17.97;89.96;98825.88;5033588;28;20045;-71
2021/10/03 05:08:44;;;;;;;8.27;4.38;;;;;;;18.12;89.25;98825.78;5035444;28;20056;-63
2021/10/03 05:11:12;;;;;;;10.10;5.18;;;;;;;18.15;89.12;98836.91;5034973;28;20072;-70
2021/10/03 05:13:39;;;;;;;7.68;4.38;;;;;;;18.29;88.41;98856.31;5035550;28;20049;-64
2021/10/03 05:16:07;;;;;;;7.72;3.83;;;;;;;17.96;89.37;98806.78;5033170;28;20057;-63
2021/10/03 05:18:36;;;;;;;8.85;4.00;;;;;;;17.76;90.81;98851.09;5032708;28;20042;-63
2021/10/03 05:21:04;;;;;;;6.65;3.70;;;;;;;18.14;89.05;98842.88;5035094;28;20060;-63
2021/10/03 05:23:32;;;;;;;6.75;3.17;;;;;;;18.25;87.98;98844.41;5034742;28;20049;-62
2021/10/03 05:26:00;;;;;;;10.65;2.03;;;;;;;17.54;88.16;98871.88;5013400;28;20068;-66
2021/10/03 05:28:27;;;;;;;4.90;1.65;;;;;;;16.27;95.87;98853.78;5013296;28;20052;-63
2021/10/03 05:30:55;;;;;;;5.38;1.92;;;;;;;16.25;97.56;98901.41;5033705;28;20064;-63
2021/10/03 05:33:23;;;;;;;3.50;1.90;;;;;;;16.68;95.15;98907.81;5034640;28;20061;-63
2021/10/03 05:35:50;;;;;;;3.08;1.00;;;;;;;17.11;92.84;98911.34;5033969;28;20049;-63
2021/10/03 05:38:18;;;;;;;2.42;0.98;;;;;;;17.32;90.28;98900.16;5034909;28;20053;-63
2021/10/03 05:40:45;;;;;;;3.35;0.90;;;;;;;16.73;90.31;98896.31;5032569;28;20053;-62
2021/10/03 05:43:16;;;;;;;2.75;0.90;;;;;;;15.68;96.00;98908.81;5034956;28;20065;-63
2021/10/03 05:45:43;;;;;;;3.17;1.00;;;;;;;15.84;98.07;98902.91;5016078;28;20045;-71
2021/10/03 05:48:11;;;;;;;2.83;0.70;;;;;;;15.04;100.00;98925.47;5034587;28;20037;-70
2021/10/03 05:50:38;;;;;;;0.98;0.60;;;;;;;14.88;100.00;98941.59;5034324;28;20404;-72
2021/10/03 05:53:07;;;;;;;2.22;0.70;;;;;;;15.14;100.00;98949.72;5035373;28;20065;-71
2021/10/03 05:55:34;;;;;;;2.13;0.82;;;;;;;14.94;100.00;98960.25;5034587;28;20045;-72
2021/10/03 05:58:02;;;;;;;1.58;0.65;;;;;;;14.82;100.00;98957.00;5034781;28;20046;-70
2021/10/03 06:00:29;;;;;;;1.75;0.60;;;;;;;14.49;100.00;98977.28;5033708;28;20060;-63
2021/10/03 06:02:56;;;;;;;2.40;0.95;;;;;;;14.85;100.00;98992.28;5033992;28;20069;-62
2021/10/03 06:05:24;;;;;;;1.67;0.50;;;;;;;14.68;100.00;98967.97;5033951;28;20057;-70
2021/10/03 06:07:51;;;;;;;2.40;0.50;;;;;;;14.55;100.00;98961.94;5034272;28;20049;-71
2021/10/03 06:10:18;;;;;;;1.90;0.55;;;;;;;14.99;100.00;98957.16;5034226;28;20058;-63
2021/10/03 06:12:46;;;;;;;3.78;0.80;;;;;;;15.44;100.00;98961.41;5034237;28;20045;-71
2021/10/03 06:15:13;;;;;;;1.88;0.80;;;;;;;16.13;100.00;98967.66;5031816;28;20053;-72
2021/10/03 06:17:40;;;;;;;2.38;0.88;;;;;;;15.59;97.42;98974.19;5033603;28;20049;-70
2021/10/03 06:20:08;;;;;;;3.13;1.02;;;;;;;15.86;99.72;98983.03;5034595;28;20148;-70
2021/10/03 06:22:35;;;;;;;1.42;0.55;;;;;;;16.25;97.67;98970.88;5034966;28;20053;-70
2021/10/03 06:25:03;;;;;;;3.15;0.73;;;;;;;16.52;94.78;98969.38;5034190;28;20064;-69
2021/10/03 06:27:31;;;;;;;1.17;0.55;;;;;;;16.70;93.70;98986.84;5013543;28;20041;-63
2021/10/03 06:29:59;;;;;;;2.08;0.85;;;;;;;16.92;92.58;98984.09;5031492;28;20064;-64
2021/10/03 06:32:26;;;;;;;3.35;1.00;;;;;;;16.94;91.55;98988.06;5033644;28;20496;-65
2021/10/03 06:34:53;;;;;;;2.15;0.90;;;;;;;17.07;90.96;98982.91;5033997;28;20057;-64
2021/10/03 06:37:20;;;;;;;1.90;1.00;;;;;;;16.94;90.30;98960.25;5033790;28;20053;-64
2021/10/03 06:39:48;;;;;;;2.63;1.25;;;;;;;16.88;90.00;98940.38;5049159;28;20052;-63
2021/10/03 06:42:15;;;;;;;3.53;1.60;;;;;;;16.62;91.34;98978.91;5037380;28;20056;-62
2021/10/03 06:44:44;;;;;;;4.97;1.83;;;;;;;16.76;92.43;98976.94;5037945;28;20107;-62
2021/10/03 06:47:11;;;;;;;4.72;2.05;;;;;;;17.06;91.20;98970.16;5036826;28;20435;-63
2021/10/03 06:49:40;;;;;;;2.42;1.42;;;;;;;16.91;90.67;98932.44;5037476;28;20512;-63
2021/10/03 06:52:09;;;;;;;2.65;1.40;;;;;;;16.77;90.21;98916.56;5036549;28;20061;-63
2021/10/03 06:54:36;;;;;;;3.40;1.40;;;;;;;16.80;90.94;98922.13;5037356;28;20057;-63
2021/10/03 06:57:04;;;;;;;4.57;1.95;;;;;;;16.99;91.40;98936.78;5038306;28;20065;-62
2021/10/03 06:59:31;;;;;;;4.90;2.20;;;;;;;16.82;90.63;98964.22;5036239;28;20049;-63
2021/10/03 07:02:03;;;;;;;5.47;2.25;;;;;;;16.86;91.23;98983.69;5036282;28;20048;-63
2021/10/03 07:04:31;;;;;;;6.80;2.22;;;;;;;16.99;91.38;99000.78;5020100;28;20053;-63
2021/10/03 07:06:59;;;;;;;5.15;1.75;;;;;;;17.11;90.84;99009.50;5035645;28;20056;-62
2021/10/03 07:09:26;;;;;;;6.35;1.80;;;;;;;17.25;89.41;99015.06;5019219;28;20144;-63
2021/10/03 07:11:57;;;;;;;4.60;1.98;;;;;;;17.34;89.07;99012.69;5037843;28;20068;-64
2021/10/03 07:14:24;;;;;;;3.70;1.50;;;;;;;17.36;89.15;99021.44;5016935;28;20474;-63
2021/10/03 07:16:51;;;;;;;3.00;1.50;;;;;;;17.38;88.85;99029.38;5019696;28;20038;-63
2021/10/03 07:19:19;;;;;;;4.57;1.30;;;;;;;17.48;88.48;99018.25;5036211;28;20041;-63
2021/10/03 07:21:46;;;;;;;3.83;1.02;;;;;;;17.57;87.85;99026.97;5037295;28;20041;-64
2021/10/03 07:24:14;;;;;;;1.67;0.65;;;;;;;17.55;87.69;99023.00;5037275;28;20046;-62
2021/10/03 07:26:41;;;;;;;3.33;1.30;;;;;;;17.59;87.21;99016.22;5019416;28;20500;-63
2021/10/03 07:29:08;;;;;;;2.72;1.25;;;;;;;17.52;87.42;99021.81;5037382;28;20163;-62
2021/10/03 07:31:36;;;;;;;2.60;1.02;;;;;;;17.29;88.25;99021.44;5035607;28;20061;-63
2021/10/03 07:34:03;;;;;;;2.63;1.30;;;;;;;17.42;88.32;99013.44;5018352;28;20536;-62
2021/10/03 07:36:30;;;;;;;2.90;1.13;;;;;;;17.47;87.37;99016.66;5037120;28;20049;-64
2021/10/03 07:38:57;;;;;;;3.03;0.80;;;;;;;17.13;87.28;99018.25;5039104;28;20041;-63
2021/10/03 07:41:25;;;;;;;4.00;1.02;;;;;;;16.80;90.95;99022.22;5037212;28;20049;-61
2021/10/03 07:43:54;;;;;;;1.88;1.05;;;;;;;16.97;91.36;99031.78;5035598;28;20050;-62
2021/10/03 07:46:21;;;;;;;3.33;1.05;;;;;;;16.73;91.02;99044.47;5018780;28;20064;-62
2021/10/03 07:48:49;;;;;;;4.90;1.10;;;;;;;16.95;91.53;99050.84;5035197;28;20068;-61
2021/10/03 07:51:16;;;;;;;2.63;1.30;;;;;;;17.23;90.61;99045.28;5034759;28;20088;-62
2021/10/03 07:53:44;;;;;;;4.55;2.25;;;;;;;17.40;89.82;99052.81;5040354;28;20052;-62
2021/10/03 07:56:12;;;;;;;4.93;1.65;;;;;;;17.48;88.98;99048.88;5032868;28;20088;-61
2021/10/03 07:58:40;;;;;;;3.35;1.27;;;;;;;17.50;88.81;99054.84;5049952;28;20068;-62
2021/10/03 08:01:07;;;;;;;4.10;1.20;;;;;;;17.47;88.46;99050.06;5047344;28;20400;-62
2021/10/03 08:03:37;;;;;;;3.20;1.08;;;;;;;17.58;88.43;99050.84;5014298;28;20054;-61
2021/10/03 08:06:04;;;;;;;;;;;;;;;17.52;88.30;99051.66;5031765;28;20053;-61
2021/10/03 08:08:32;;;;;;;3.13;1.00;;;;;;;17.65;87.96;99067.56;5035524;28;19921;-61
2021/10/03 08:10:59;;;;;;;4.35;1.20;;;;;;;17.65;87.47;99075.09;5015936;28;20674;-59
2021/10/03 08:13:26;;;;;;;10.65;2.08;;;;;;;17.84;86.72;99053.19;5035452;28;20053;-62
2021/10/03 08:15:54;;;;;;;6.47;3.50;;;;;;;17.70;87.00;99063.56;5034618;28;20054;-63
2021/10/03 08:18:21;;;;;;;5.53;2.08;;;;;;;17.54;87.58;99077.13;5034997;28;20049;-61
2021/10/03 08:20:51;;;;;;;3.38;1.33;;;;;;;17.86;87.15;99080.63;5035733;28;20042;-62
2021/10/03 08:23:18;;;;;;;7.67;4.53;;;;;;;17.84;86.96;99080.22;5034201;28;20049;-64
2021/10/03 08:25:46;;;;;;;7.35;4.35;;;;;;;17.89;86.71;99091.78;5033507;28;20416;-63
2021/10/03 08:28:14;;;;;;;4.78;2.13;;;;;;;17.99;85.81;99084.59;5035326;28;20053;-63
2021/10/03 08:30:41;;;;;;;4.50;1.02;;;;;;;17.81;86.47;99090.19;5033543;28;20046;-65
2021/10/03 08:33:08;;;;;;;2.90;1.60;;;;;;;18.01;86.71;99100.91;5034928;28;20128;-62
2021/10/03 08:35:36;;;;;;;3.90;1.35;;;;;;;17.88;86.82;99089.38;5029322;28;20049;-63
2021/10/03 08:38:03;;;;;;;5.35;1.63;;;;;;;17.85;87.51;99081.84;5035419;28;20057;-63
2021/10/03 08:40:31;;;;;;;4.20;1.25;;;;;;;17.95;87.03;99092.97;5044637;28;20544;-63
2021/10/03 08:42:58;;;;;;;3.95;1.70;;;;;;;18.07;86.30;99090.91;5033726;28;20365;-63
2021/10/03 08:45:25;;;;;;;4.80;1.70;;;;;;;18.19;85.96;99099.66;5035428;28;20045;-63
2021/10/03 08:47:53;;;;;;;3.47;1.80;;;;;;;18.20;85.97;99109.59;5035133;28;20057;-62
2021/10/03 08:50:23;;;;;;;3.90;1.70;;;;;;;18.21;85.60;99132.69;5034663;28;20041;-64
2021/10/03 08:52:50;;;;;;;5.65;1.90;;;;;;;18.18;85.94;99130.72;5034900;28;20061;-64
2021/10/03 08:55:17;;;;;;;4.43;1.80;;;;;;;18.17;85.97;99141.06;5031422;28;20045;-64
2021/10/03 08:57:45;;;;;;;5.00;2.10;;;;;;;18.24;85.26;99132.66;5029283;28;20048;-63
2021/10/03 09:00:19;;;;;;;5.03;2.10;;;;;;;18.29;85.46;99139.84;5033880;28;20204;-62
2021/10/03 09:03:01;;;;;;;5.38;1.80;;;;;;;18.32;85.21;99147.41;5030200;28;20049;-64
2021/10/03 09:05:32;;;;;;;5.30;2.15;;;;;;;18.25;85.80;99142.63;5013286;28;20057;-65
2021/10/03 09:08:19;;;;;;;4.55;2.20;;;;;;;18.36;85.32;99137.81;5033894;28;20045;-64
2021/10/03 09:11:03;;;;;;;5.50;2.22;;;;;;;18.39;85.91;99159.31;5033219;28;20046;-63
2021/10/03 09:13:30;;;;;;;5.80;1.95;;;;;;;18.44;86.28;99153.38;5035569;28;20054;-65
2021/10/03 09:16:13;;;;;;;8.60;2.35;;;;;;;18.74;85.41;99155.63;5034419;28;20050;-64
2021/10/03 09:18:59;;;;;;;5.40;2.47;;;;;;;18.69;85.10;99159.63;5035411;28;20060;-65
2021/10/03 09:21:29;;;;;;;4.90;2.47;;;;;;;18.69;85.41;99170.78;5032711;28;20053;-63
2021/10/03 09:24:04;;;;;;;;;;;;;;;18.98;83.60;99171.44;5035819;28;20061;-64
2021/10/03 09:26:34;;;;;;;6.28;2.35;;;;;;;19.20;82.51;99172.09;5033617;28;19921;-63
2021/10/03 09:29:22;;;;;;;7.00;4.07;;;;;;;19.17;82.64;99181.31;5035327;28;20060;-64
2021/10/03 09:32:08;;;;;;;5.40;1.98;;;;;;;19.12;82.86;99182.53;5029115;28;20061;-70
2021/10/03 09:34:37;;;;;;;4.40;1.55;;;;;;;18.98;84.11;99193.78;5033312;28;20084;-63
2021/10/03 09:37:14;;;;;;;4.82;2.15;;;;;;;18.90;84.35;99236.84;5032929;28;20044;-63
2021/10/03 09:39:42;;;;;;;4.40;1.25;;;;;;;17.25;85.91;99303.69;5040853;28;20401;-63
2021/10/03 09:42:14;;;;;;;1.85;0.60;;;;;;;15.03;92.20;99332.31;5021968;28;20504;-63
2021/10/03 09:45:14;;;;;;;1.67;0.63;;;;;;;14.32;95.67;99355.44;5026998;28;20057;-63
2021/10/03 09:47:44;;;;;;;1.15;0.57;;;;;;;14.19;96.32;99384.44;5020802;28;20072;-63
2021/10/03 09:50:15;;;;;;;1.55;0.40;;;;;;;13.87;94.68;99421.03;5016640;28;20045;-61
2021/10/03 09:52:43;;;;;;;1.77;0.73;;;;;;;13.84;96.15;99427.31;5034702;28;20072;-61
2021/10/03 09:55:14;;;;;;;1.55;0.40;;;;;;;13.70;96.04;99443.63;5034957;28;20076;-62
2021/10/03 09:57:43;;;;;;;1.30;0.38;;;;;;;13.69;95.75;99425.41;5030725;28;20057;-62
2021/10/03 10:00:15;;;;;;;0.50;0.30;;;;;;;13.44;95.46;99438.75;5032846;28;20053;-61
2021/10/03 10:02:44;;;;;;;0.75;0.47;;;;;;;13.46;97.83;99441.94;5032500;28;20076;-61
2021/10/03 10:05:25;;;;;;;0.70;0.30;;;;;;;13.28;93.77;99476.72;5033415;28;20041;-61
2021/10/03 10:07:54;;;;;;;1.50;0.30;;;;;;;13.51;96.27;99478.41;5027012;28;20053;-61
2021/10/03 10:10:22;;;;;;;1.55;0.57;;;;;;;13.79;99.54;99511.41;5033105;28;20049;-60
2021/10/03 10:12:56;;;;;;;1.50;0.40;;;;;;;12.97;94.97;99513.47;5033583;28;20041;-60
2021/10/03 10:15:25;;;;;;;0.85;0.40;;;;;;;13.56;99.82;99568.66;5032829;28;20057;-61
2021/10/03 10:17:53;;;;;;;0.90;0.30;;;;;;;13.54;93.73;99538.56;5034417;28;20045;-62
2021/10/03 10:20:20;;;;;;;1.17;0.40;;;;;;;13.48;98.73;99556.59;5032242;28;20037;-61
2021/10/03 10:22:58;;;;;;;1.20;0.70;;;;;;;13.97;95.89;99545.81;5034103;28;20068;-62
2021/10/03 10:25:52;;;;;;;1.55;0.60;;;;;;;14.49;95.41;99561.91;5032155;28;20060;-63
2021/10/03 10:28:27;;;;;;;1.95;0.60;;;;;;;14.29;94.44;99583.31;5019895;28;20485;-62
2021/10/03 10:31:02;;;;;;;0.60;0.35;;;;;;;13.58;90.42;99621.66;5033196;28;20046;-62
2021/10/03 10:33:52;;;;;;;1.42;0.55;;;;;;;13.41;91.02;99619.25;5033542;28;20057;-62
2021/10/03 10:36:28;;;;;;;3.75;1.02;;;;;;;13.99;95.35;99621.00;5026712;28;20046;-61
2021/10/03 10:39:07;;;;;;;5.65;0.40;;;;;;;14.00;91.37;99628.13;5035825;28;20063;-62
2021/10/03 10:41:40;;;;;;;0.80;0.38;;;;;;;13.66;89.85;99636.44;5033614;28;20057;-61
2021/10/03 10:44:28;;;;;;;1.45;0.50;;;;;;;13.12;94.40;99642.66;5031820;28;20064;-62
2021/10/03 10:47:00;;;;;;;5.82;0.73;;;;;;;13.45;96.45;99670.75;5033412;28;20050;-61
2021/10/03 10:49:37;;;;;;;1.48;0.57;;;;;;;13.31;93.36;99684.22;5034299;28;20048;-61
2021/10/03 10:52:20;;;;;;;3.05;0.75;;;;;;;13.56;97.99;99704.22;5033551;28;20059;-61
2021/10/03 10:55:06;;;;;;;2.42;0.70;;;;;;;13.87;92.60;99706.13;5034147;28;20097;-62
2021/10/03 10:57:53;;;;;;;1.85;0.60;;;;;;;13.81;91.11;99722.22;5033195;28;20049;-61
2021/10/03 11:00:30;;;;;;;2.08;0.88;;;;;;;14.01;90.47;99712.00;5032323;28;20092;-62
2021/10/03 11:03:04;;;;;;;3.08;0.80;;;;;;;14.21;90.46;99700.59;5033912;28;20056;-60
2021/10/03 11:05:35;;;;;;;7.88;1.10;;;;;;;14.27;86.54;99676.22;5034389;28;20045;-61
2021/10/03 11:08:09;;;;;;;2.55;0.90;;;;;;;13.78;85.13;99686.16;5031603;28;20057;-62
2021/10/03 11:10:57;;;;;;;1.60;0.80;;;;;;;14.33;84.75;99692.19;5034581;28;20576;-62
2021/10/03 11:13:47;;;;;;;1.95;0.68;;;;;;;14.54;83.95;99706.50;5034201;28;20064;-61
2021/10/03 11:16:19;;;;;;;1.67;1.00;;;;;;;14.41;80.82;99729.19;5034023;28;20519;-61
2021/10/03 11:18:50;;;;;;;3.22;1.02;;;;;;;14.47;88.16;99728.53;5033736;28;20057;-61
2021/10/03 11:21:20;;;;;;;;;;;;;;;14.37;85.23;99740.19;5034656;28;20053;-62
2021/10/03 11:23:47;;;;;;;5.45;1.00;;;;;;;15.16;86.83;99755.28;5033034;28;19921;-61
2021/10/03 11:26:14;;;;;;;2.95;0.98;;;;;;;15.52;85.62;99765.09;5037893;28;20053;-61
2021/10/03 11:28:51;;;;;;;4.10;1.10;;;;;;;15.75;81.61;99786.16;5036644;28;20056;-61
2021/10/03 11:31:57;;;;;;;1.60;1.10;;;;;;;15.30;85.14;99790.81;5037077;28;20060;-62
2021/10/03 11:34:35;;;;;;;3.38;1.05;;;;;;;15.47;81.21;99799.53;4994817;28;20663;-61
2021/10/03 11:37:06;;;;;;;2.70;0.95;;;;;;;15.37;79.93;99808.44;5029329;28;20054;-61
2021/10/03 11:39:39;;;;;;;3.78;1.15;;;;;;;15.81;83.66;99805.28;5045208;28;20491;-61
2021/10/03 11:42:15;;;;;;;3.58;1.27;;;;;;;16.08;76.02;99829.16;5034134;28;20060;-61
2021/10/03 11:44:43;;;;;;;2.13;0.90;;;;;;;15.72;76.60;99838.84;5033723;28;20145;-62